Time;durP1;ratioP1;P1;durP2;ratioP2;P2;SDS_P1;SDS_P2;PMS_P1;PMS_P2;Temp;Humidity;BMP_temperature;BMP_pressure;BME280_temperature;BME280_humidity;BME280_pressure;Samples;Min_cycle;Max_cycle;Signal;HPM_P1;HPM_P2
2024/01/24 00:00:40;;;;;;;;;;;;;;;-1.32;100.00;98506.38;110425;1241;68595;-60
2024/01/24 00:03:29;;;;;;;;;;;;;;;-1.36;100.00;98507.95;110297;1241;70891;-60
2024/01/24 00:05:59;;;;;;;;;;;;;;;-1.37;100.00;98510.02;110394;1241;59715;-60
2024/01/24 00:08:29;;;;;;;;;;;;;;;-1.39;100.00;98507.30;110391;1241;59672;-60
2024/01/24 00:10:58;;;;;;;;;;;;;;;-1.38;100.00;98512.60;110542;1241;72351;-60
2024/01/24 00:13:28;;;;;;;;;;;;;;;-1.38;100.00;98512.25;110452;1241;69813;-60
2024/01/24 00:15:57;;;;;;;;;;;;;;;-1.36;100.00;98519.08;110348;1241;68267;-60
2024/01/24 00:18:28;;;;;;;;;;;;;;;-1.35;100.00;98520.77;110335;1241;59750;-60
2024/01/24 00:20:57;;;;;;;;;;;;;;;-1.35;100.00;98515.12;110339;1241;59672;-60
2024/01/24 00:23:27;;;;;;;;;;;;;;;-1.35;100.00;98524.19;110366;1238;71500;-60
2024/01/24 00:25:57;;;;;;;;;;;;;;;-1.37;100.00;98528.83;110372;1240;68498;-60
2024/01/24 00:28:27;;;;;;;;;;;;;;;-1.41;100.00;98527.14;110352;1241;69370;-61
2024/01/24 00:30:57;;;;;;;;;;;;;;;-1.46;100.00;98529.23;110359;1239;59681;-61
2024/01/24 00:33:29;;;;;;;;;;;;;;;-1.52;100.00;98526.88;110348;1241;59675;-60
2024/01/24 00:35:58;;;;;;;;;;;;;;;-1.58;100.00;98521.62;110360;1240;71411;-60
2024/01/24 00:38:28;;;;;;;;;;;;;;;-1.62;100.00;98523.19;110346;1240;69201;-60
2024/01/24 00:40:59;;;;;;;;;;;;;;;-1.70;100.00;98521.02;110394;1238;69360;-60
2024/01/24 00:43:29;;;;;;;;;;;;;;;-1.73;100.00;98522.56;110368;1241;59664;-60
2024/01/24 00:45:59;;;;;;;;;;;;;;;-1.77;100.00;98519.69;110349;1243;59664;-60
2024/01/24 00:48:29;;;;;;;;;;;;;;;-1.80;100.00;98521.94;110348;1241;71428;-60
2024/01/24 00:50:59;;;;;;;;;;;;;;;-1.81;100.00;98516.80;110364;1240;68565;-60
2024/01/24 00:53:34;;;;;;;;;;;;;;;-1.81;100.00;98516.79;110347;1241;68338;-60
2024/01/24 00:56:05;;;;;;;;;;;;;;;-1.81;100.00;98524.83;110341;1239;59741;-60
2024/01/24 00:58:35;;;;;;;;;;;;;;;-1.82;100.00;98521.60;110356;1241;59722;-60
2024/01/24 01:01:05;;;;;;;;;;;;;;;-1.83;100.00;98522.80;110416;1241;70842;-60
2024/01/24 01:03:34;;;;;;;;;;;;;;;-1.85;100.00;98513.23;110362;1241;69844;-60
2024/01/24 01:06:05;;;;;;;;;;;;;;;-1.87;100.00;98512.91;110412;1247;69899;-60
2024/01/24 01:08:35;;;;;;;;;;;;;;;-1.90;100.00;98511.04;110347;1242;59702;-60
2024/01/24 01:11:06;;;;;;;;;;;;;;;-1.94;100.00;98514.82;110365;1240;59726;-59
2024/01/24 01:13:35;;;;;;;;;;;;;;;-2.01;100.00;98512.64;110339;1241;70653;-60
2024/01/24 01:16:05;;;;;;;;;;;;;;;-2.07;100.00;98514.73;110345;1240;68659;-60
2024/01/24 01:18:37;;;;;;;;;;;;;;;-2.12;100.00;98512.01;110313;1240;69414;-59
2024/01/24 01:21:08;;;;;;;;;;;;;;;-2.16;100.00;98516.82;110337;1241;59682;-59
2024/01/24 01:23:40;;;;;;;;;;;;;;;-2.19;100.00;98520.92;110356;1240;59640;-60
2024/01/24 01:26:11;;;;;;;;;;;;;;;-2.20;100.00;98517.17;110368;1239;71682;-60
2024/01/24 01:28:42;;;;;;;;;;;;;;;-2.19;100.00;98519.90;110354;1241;69416;-60
2024/01/24 01:31:14;;;;;;;;;;;;;;;-2.19;100.00;98520.07;110331;1240;69470;-60
2024/01/24 01:33:45;;;;;;;;;;;;;;;-2.17;100.00;98511.86;110347;1239;59727;-60
2024/01/24 01:36:17;;;;;;;;;;;;;;;-2.13;100.00;98508.26;110384;1243;60016;-60
2024/01/24 01:38:52;;;;;;;;;;;;;;;-2.08;100.00;98502.09;110386;1240;71339;-59
2024/01/24 01:41:24;;;;;;;;;;;;;;;-2.02;100.00;98506.33;110382;1240;68499;-60
2024/01/24 01:43:55;;;;;;;;;;;;;;;-1.98;100.00;98499.82;110445;1240;68529;-60
2024/01/24 01:46:27;;;;;;;;;;;;;;;-1.93;100.00;98504.57;110459;1240;59664;-60
2024/01/24 01:48:58;;;;;;;;;;;;;;;-1.90;100.00;98502.84;110337;1240;59624;-60
2024/01/24 01:51:29;;;;;;;;;;;;;;;-1.88;100.00;98501.31;110371;1240;71242;-58
2024/01/24 01:54:00;;;;;;;;;;;;;;;-1.87;100.00;98500.09;110390;1238;67326;-60
2024/01/24 01:56:31;;;;;;;;;;;;;;;-1.86;100.00;98494.61;110379;1239;69423;-60
2024/01/24 01:59:05;;;;;;;;;;;;;;;-1.88;100.00;98491.55;110328;1241;59679;-60
2024/01/24 02:01:39;;;;;;;;;;;;;;;-1.89;100.00;98496.52;110337;1240;59645;-60
2024/01/24 02:04:11;;;;;;;;;;;;;;;-1.92;100.00;98492.77;110279;1241;71339;-59
2024/01/24 02:06:43;;;;;;;;;;;;;;;-1.95;100.00;98493.66;110358;1241;69245;-60
2024/01/24 02:09:13;;;;;;;;;;;;;;;-1.96;100.00;98497.23;110395;1241;69040;-59
2024/01/24 02:11:44;;;;;;;;;;;;;;;-1.95;100.00;98496.89;110331;1241;59798;-60
2024/01/24 02:14:15;;;;;;;;;;;;;;;-1.94;100.00;98496.38;110456;1247;59675;-61
2024/01/24 02:16:46;;;;;;;;;;;;;;;-1.94;100.00;98495.69;110462;1248;70798;-60
2024/01/24 02:19:17;;;;;;;;;;;;;;;-1.94;100.00;98491.42;110357;1241;68776;-60
2024/01/24 02:21:48;;;;;;;;;;;;;;;-1.96;100.00;98490.41;110356;1239;69590;-61
2024/01/24 02:24:19;;;;;;;;;;;;;;;-1.97;100.00;98483.75;110454;1241;59688;-59
2024/01/24 02:26:52;;;;;;;;;;;;;;;-1.98;100.00;98491.79;110383;1241;59735;-60
2024/01/24 02:29:23;;;;;;;;;;;;;;;-2.01;100.00;98488.05;110410;1240;70642;-59
2024/01/24 02:31:55;;;;;;;;;;;;;;;-2.01;100.00;98490.27;110384;1238;68650;-60
2024/01/24 02:34:27;;;;;;;;;;;;;;;-2.01;100.00;98486.67;110430;1239;69376;-60
2024/01/24 02:37:00;;;;;;;;;;;;;;;-2.01;100.00;98487.19;110463;1241;59742;-60
2024/01/24 02:39:32;;;;;;;;;;;;;;;-2.01;100.00;98486.16;110499;1241;59756;-59
2024/01/24 02:42:02;;;;;;;;;;;;;;;-1.99;100.00;98487.86;110368;1241;70937;-60
2024/01/24 02:44:32;;;;;;;;;;;;;;;-1.96;100.00;98489.20;110346;1240;68473;-60
2024/01/24 02:47:03;;;;;;;;;;;;;;;-1.93;100.00;98483.89;110374;1241;68356;-60
2024/01/24 02:49:35;;;;;;;;;;;;;;;-1.91;100.00;98485.09;110358;1240;59694;-60
2024/01/24 02:52:06;;;;;;;;;;;;;;;-1.94;100.00;98488.17;110291;1240;59661;-60
2024/01/24 02:54:38;;;;;;;;;;;;;;;-1.98;100.00;98485.63;110343;1240;71383;-60
2024/01/24 02:57:09;;;;;;;;;;;;;;;-2.00;100.00;98492.30;110313;1242;68511;-60
2024/01/24 02:59:39;;;;;;;;;;;;;;;-2.02;100.00;98498.48;110454;1244;68527;-59
2024/01/24 03:02:09;;;;;;;;;;;;;;;-2.01;100.00;98492.99;110314;1241;59706;-60
2024/01/24 03:04:39;;;;;;;;;;;;;;;-1.99;100.00;98494.70;110337;1240;59731;-59
2024/01/24 03:07:10;;;;;;;;;;;;;;;-1.97;100.00;98500.84;110485;1242;71875;-60
2024/01/24 03:09:41;;;;;;;;;;;;;;;-1.97;100.00;98499.64;110507;1241;69467;-60
2024/01/24 03:12:13;;;;;;;;;;;;;;;-1.94;100.00;98504.41;110487;1241;69406;-59
2024/01/24 03:14:46;;;;;;;;;;;;;;;-1.92;100.00;98507.64;110449;1241;59648;-61
2024/01/24 03:17:19;;;;;;;;;;;;;;;-1.91;100.00;98502.50;110489;1240;59698;-60
2024/01/24 03:19:50;;;;;;;;;;;;;;;-1.91;100.00;98497.89;110533;1238;70505;-61
2024/01/24 03:22:24;;;;;;;;;;;;;;;-1.92;100.00;98499.27;110451;1241;69060;-60
2024/01/24 03:24:55;;;;;;;;;;;;;;;-1.93;100.00;98499.45;110364;1241;68518;-60
2024/01/24 03:27:27;;;;;;;;;;;;;;;-1.93;100.00;98503.72;110277;1239;59692;-60
2024/01/24 03:30:02;;;;;;;;;;;;;;;-1.94;100.00;98506.45;110398;1241;59683;-60
2024/01/24 03:32:36;;;;;;;;;;;;;;;-1.94;100.00;98508.85;110375;1241;71514;-60
2024/01/24 03:35:10;;;;;;;;;;;;;;;-1.93;100.00;98513.98;110420;1240;69066;-60
2024/01/24 03:37:42;;;;;;;;;;;;;;;-1.92;100.00;98505.59;110413;1241;68578;-61
2024/01/24 03:40:12;;;;;;;;;;;;;;;-1.90;100.00;98509.34;110435;1241;59664;-60
2024/01/24 03:42:44;;;;;;;;;;;;;;;-1.87;100.00;98511.55;110421;1241;59697;-60
2024/01/24 03:45:15;;;;;;;;;;;;;;;-1.83;100.00;98514.08;110440;1241;71375;-61
2024/01/24 03:47:47;;;;;;;;;;;;;;;-1.80;100.00;98514.08;110400;1241;69224;-61
2024/01/24 03:50:17;;;;;;;;;;;;;;;-1.76;100.00;98510.63;110454;1241;68661;-61
2024/01/24 03:52:47;;;;;;;;;;;;;;;-1.77;100.00;98510.63;110303;1241;59712;-61
2024/01/24 03:55:17;;;;;;;;;;;;;;;-1.76;100.00;98513.01;110489;1240;59672;-61
2024/01/24 03:57:49;;;;;;;;;;;;;;;-1.77;100.00;98514.73;110407;1240;71414;-61
2024/01/24 04:00:20;;;;;;;;;;;;;;;-1.78;100.00;98514.05;110384;1241;69901;-61
2024/01/24 04:02:52;;;;;;;;;;;;;;;-1.80;100.00;98514.91;110353;1241;69646;-61
2024/01/24 04:05:23;;;;;;;;;;;;;;;-1.78;100.00;98505.68;110416;1239;59761;-61
2024/01/24 04:07:54;;;;;;;;;;;;;;;-1.76;100.00;98503.95;110442;1242;59703;-62
2024/01/24 04:10:23;;;;;;;;;;;;;;;-1.76;100.00;98501.73;110451;1241;71855;-62
2024/01/24 04:12:53;;;;;;;;;;;;;;;-1.77;100.00;98493.36;110473;1242;69527;-61
2024/01/24 04:15:23;;;;;;;;;;;;;;;-1.74;100.00;98492.15;110508;1241;69595;-60
2024/01/24 04:17:53;;;;;;;;;;;;;;;-1.70;100.00;98494.19;110464;1241;59705;-59
2024/01/24 04:20:24;;;;;;;;;;;;;;;-1.68;100.00;98493.64;110446;1240;59691;-58
2024/01/24 04:22:54;;;;;;;;;;;;;;;-1.68;100.00;98495.86;110398;1241;71551;-59
2024/01/24 04:25:24;;;;;;;;;;;;;;;-1.68;100.00;98502.19;110391;1242;68288;-59
2024/01/24 04:27:54;;;;;;;;;;;;;;;-1.68;100.00;98498.77;110305;1244;69291;-59
2024/01/24 04:30:25;;;;;;;;;;;;;;;-1.68;100.00;98494.34;110392;1241;59712;-59
2024/01/24 04:32:55;;;;;;;;;;;;;;;-1.70;100.00;98488.20;110420;1241;59696;-60
2024/01/24 04:35:26;;;;;;;;;;;;;;;-1.71;100.00;98482.39;110383;1240;71604;-60
2024/01/24 04:37:57;;;;;;;;;;;;;;;-1.70;100.00;98480.85;110381;1240;69284;-60
2024/01/24 04:40:28;;;;;;;;;;;;;;;-1.71;100.00;98480.17;110365;1242;69204;-59
2024/01/24 04:42:58;;;;;;;;;;;;;;;-1.75;100.00;98480.88;110324;1241;59751;-60
2024/01/24 04:45:27;;;;;;;;;;;;;;;-1.77;100.00;98486.37;110445;1241;59675;-59
2024/01/24 04:47:57;;;;;;;;;;;;;;;-1.81;100.00;98488.60;110414;1241;69603;-59
2024/01/24 04:50:28;;;;;;;;;;;;;;;-1.80;100.00;98488.10;110404;1238;69264;-59
2024/01/24 04:52:58;;;;;;;;;;;;;;;-1.81;100.00;98499.55;110325;1240;68501;-59
2024/01/24 04:55:28;;;;;;;;;;;;;;;-1.79;100.00;98499.70;110383;1240;59703;-60
2024/01/24 04:57:58;;;;;;;;;;;;;;;-1.77;100.00;98502.25;110422;1241;59712;-60
2024/01/24 05:00:29;;;;;;;;;;;;;;;-1.77;100.00;98508.40;110355;1240;70411;-59
2024/01/24 05:02:58;;;;;;;;;;;;;;;-1.79;100.00;98511.52;110342;1240;68521;-60
2024/01/24 05:05:29;;;;;;;;;;;;;;;-1.82;100.00;98509.80;110262;1241;67846;-60
2024/01/24 05:07:58;;;;;;;;;;;;;;;-1.84;100.00;98516.31;110312;1240;59741;-59
2024/01/24 05:10:27;;;;;;;;;;;;;;;-1.84;100.00;98514.61;110354;1241;59682;-60
2024/01/24 05:12:58;;;;;;;;;;;;;;;-1.84;100.00;98516.31;110373;1239;70433;-60
2024/01/24 05:15:29;;;;;;;;;;;;;;;-1.83;100.00;98518.87;110347;1239;68738;-60
2024/01/24 05:17:58;;;;;;;;;;;;;;;-1.81;100.00;98518.33;110388;1240;69275;-59
2024/01/24 05:20:29;;;;;;;;;;;;;;;-1.78;100.00;98512.17;110324;1240;59734;-59
2024/01/24 05:22:59;;;;;;;;;;;;;;;-1.77;100.00;98507.38;110388;1240;59646;-60
2024/01/24 05:25:32;;;;;;;;;;;;;;;-1.77;100.00;98503.10;110400;1239;71420;-60
2024/01/24 05:28:03;;;;;;;;;;;;;;;-1.77;100.00;98500.71;110318;1241;69793;-60
2024/01/24 05:30:32;;;;;;;;;;;;;;;-1.77;100.00;98508.23;110362;1242;69359;-59
2024/01/24 05:33:04;;;;;;;;;;;;;;;-1.78;100.00;98508.08;110378;1239;59743;-60
2024/01/24 05:35:34;;;;;;;;;;;;;;;-1.78;100.00;98505.86;110397;1241;59664;-60
2024/01/24 05:38:04;;;;;;;;;;;;;;;-1.79;100.00;98500.39;110421;1241;71318;-60
2024/01/24 05:40:33;;;;;;;;;;;;;;;-1.81;100.00;98496.98;110424;1241;69874;-60
2024/01/24 05:43:03;;;;;;;;;;;;;;;-1.83;100.00;98503.65;110357;1241;68513;-60
2024/01/24 05:45:33;;;;;;;;;;;;;;;-1.84;100.00;98506.92;110359;1241;59743;-60
2024/01/24 05:48:03;;;;;;;;;;;;;;;-1.87;100.00;98505.56;110363;1242;60133;-59
2024/01/24 05:50:32;;;;;;;;;;;;;;;-1.87;100.00;98506.58;110384;1243;71877;-60
2024/01/24 05:53:02;;;;;;;;;;;;;;;-1.87;100.00;98508.64;110330;1239;69286;-60
2024/01/24 05:55:31;;;;;;;;;;;;;;;-1.87;100.00;98509.48;110364;1241;69837;-59
2024/01/24 05:58:01;;;;;;;;;;;;;;;-1.88;100.00;98511.55;110357;1239;59746;-60
2024/01/24 06:00:30;;;;;;;;;;;;;;;-1.87;100.00;98508.13;110256;1241;59691;-59
2024/01/24 06:03:00;;;;;;;;;;;;;;;-1.85;100.00;98506.41;110328;1241;71267;-59
2024/01/24 06:05:30;;;;;;;;;;;;;;;-1.86;100.00;98500.77;110378;1240;69088;-59
2024/01/24 06:07:59;;;;;;;;;;;;;;;-1.89;100.00;98501.48;110261;1241;69261;-60
2024/01/24 06:10:29;;;;;;;;;;;;;;;-1.91;100.00;98505.92;110393;1241;60141;-60
2024/01/24 06:12:58;;;;;;;;;;;;;;;-1.92;100.00;98504.23;110419;1248;59689;-59
2024/01/24 06:15:27;;;;;;;;;;;;;;;-1.91;100.00;98505.57;110409;1241;70983;-60
2024/01/24 06:17:57;;;;;;;;;;;;;;;-1.89;100.00;98503.52;110387;1241;68534;-60
2024/01/24 06:20:27;;;;;;;;;;;;;;;-1.87;100.00;98505.05;110415;1241;69688;-62
2024/01/24 06:22:56;;;;;;;;;;;;;;;-1.88;100.00;98499.92;110398;1240;59736;-59
2024/01/24 06:25:26;;;;;;;;;;;;;;;-1.88;100.00;98503.86;110458;1242;59700;-60
2024/01/24 06:27:55;;;;;;;;;;;;;;;-1.87;100.00;98504.71;110475;1243;72173;-60
2024/01/24 06:30:24;;;;;;;;;;;;;;;-1.88;100.00;98515.14;110476;1239;68423;-60
2024/01/24 06:32:58;;;;;;;;;;;;;;;-1.88;100.00;98519.59;110372;1240;69955;-60
2024/01/24 06:35:29;;;;;;;;;;;;;;;-1.88;100.00;98516.85;110423;1242;59683;-60
2024/01/24 06:37:58;;;;;;;;;;;;;;;-1.85;100.00;98521.61;110399;1242;59705;-60
2024/01/24 06:40:27;;;;;;;;;;;;;;;-1.80;100.00;98527.06;110342;1241;72136;-60
2024/01/24 06:42:56;;;;;;;;;;;;;;;-1.77;100.00;98537.81;110397;1241;69803;-60
2024/01/24 06:45:26;;;;;;;;;;;;;;;-1.73;100.00;98535.73;110299;1241;69421;-60
2024/01/24 06:47:55;;;;;;;;;;;;;;;-1.68;100.00;98537.41;110449;1241;59734;-60
2024/01/24 06:50:25;;;;;;;;;;;;;;;-1.63;100.00;98538.74;110505;1239;59661;-60
2024/01/24 06:52:55;;;;;;;;;;;;;;;-1.58;100.00;98544.70;110478;1241;71740;-60
2024/01/24 06:55:27;;;;;;;;;;;;;;;-1.58;100.00;98544.35;110448;1241;69329;-60
2024/01/24 06:57:56;;;;;;;;;;;;;;;-1.55;100.00;98545.02;110386;1242;69838;-60
2024/01/24 07:00:26;;;;;;;;;;;;;;;-1.51;100.00;98543.62;110320;1241;59732;-60
2024/01/24 07:02:56;;;;;;;;;;;;;;;-1.47;100.00;98540.54;110358;1241;59671;-60
2024/01/24 07:05:25;;;;;;;;;;;;;;;-1.42;100.00;98537.41;110318;1242;71979;-60
2024/01/24 07:07:56;;;;;;;;;;;;;;;-1.38;100.00;98532.08;110348;1241;69217;-60
2024/01/24 07:10:25;;;;;;;;;;;;;;;-1.35;100.00;98528.98;110269;1239;69240;-60
2024/01/24 07:12:55;;;;;;;;;;;;;;;-1.33;100.00;98521.79;110384;1242;59738;-62
2024/01/24 07:15:25;;;;;;;;;;;;;;;-1.30;100.00;98520.55;110367;1240;59640;-60
2024/01/24 07:17:55;;;;;;;;;;;;;;;-1.27;100.00;98526.87;110384;1241;72327;-60
2024/01/24 07:20:24;;;;;;;;;;;;;;;-1.24;100.00;98533.86;110408;1241;69833;-60
2024/01/24 07:22:53;;;;;;;;;;;;;;;-1.23;100.00;98531.63;110303;1241;69860;-60
2024/01/24 07:25:23;;;;;;;;;;;;;;;-1.23;100.00;98530.95;110478;1240;60202;-60
2024/01/24 07:27:52;;;;;;;;;;;;;;;-1.21;100.00;98525.10;110497;1241;59676;-60
2024/01/24 07:30:22;;;;;;;;;;;;;;;-1.19;100.00;98511.93;110349;1240;71456;-60
2024/01/24 07:32:51;;;;;;;;;;;;;;;-1.14;100.00;98508.12;110336;1238;68443;-59
2024/01/24 07:35:21;;;;;;;;;;;;;;;-1.06;100.00;98511.46;110399;1242;69785;-60
2024/01/24 07:37:51;;;;;;;;;;;;;;;-0.99;100.00;98510.55;110351;1242;59681;-60
2024/01/24 07:40:20;;;;;;;;;;;;;;;-0.94;100.00;98514.78;110451;1242;59672;-60
2024/01/24 07:42:51;;;;;;;;;;;;;;;-0.89;100.00;98514.41;110400;1238;71439;-60
2024/01/24 07:45:22;;;;;;;;;;;;;;;-0.84;100.00;98513.48;110351;1243;70285;-60
2024/01/24 07:47:51;;;;;;;;;;;;;;;-0.77;100.00;98509.98;110385;1240;69306;-60
2024/01/24 07:50:21;;;;;;;;;;;;;;;-0.72;100.00;98506.18;110424;1241;59703;-60
2024/01/24 07:52:51;;;;;;;;;;;;;;;-0.66;100.00;98505.77;110440;1242;59646;-60
2024/01/24 07:55:21;;;;;;;;;;;;;;;-0.63;100.00;98504.90;110453;1247;70524;-60
2024/01/24 07:58:04;;;;;;;;;;;;;;;-0.62;100.00;98497.69;110380;1242;69259;-60
2024/01/24 08:00:33;;;;;;;;;;;;;;;-0.62;100.00;98497.00;110469;1242;69985;-60
2024/01/24 08:03:02;;;;;;;;;;;;;;;-0.60;100.00;98491.66;110468;1241;59665;-61
2024/01/24 08:05:32;;;;;;;;;;;;;;;-0.52;100.00;98489.19;110470;1241;59721;-60
2024/01/24 08:08:01;;;;;;;;;;;;;;;-0.45;100.00;98491.84;110349;1242;72113;-62
2024/01/24 08:10:31;;;;;;;;;;;;;;;-0.41;100.00;98487.52;110361;1241;69925;-60
2024/01/24 08:13:00;;;;;;;;;;;;;;;-0.37;100.00;98488.32;110344;1242;69230;-60
2024/01/24 08:15:32;;;;;;;;;;;;;;;-0.31;100.00;98486.20;110490;1241;59748;-61
2024/01/24 08:18:01;;;;;;;;;;;;;;;-0.27;100.00;98488.04;110418;1241;59744;-60
2024/01/24 08:20:31;;;;;;;;;;;;;;;-0.20;100.00;98489.33;110492;1247;70640;-60
2024/01/24 08:23:00;;;;;;;;;;;;;;;-0.10;100.00;98477.88;110381;1242;69788;-60
2024/01/24 08:25:29;;;;;;;;;;;;;;;-0.03;100.00;98472.65;110385;1242;69256;-61
2024/01/24 08:27:59;;;;;;;;;;;;;;;0.03;100.00;98466.39;110341;1241;59739;-60
2024/01/24 08:30:28;;;;;;;;;;;;;;;0.04;100.00;98463.47;110337;1243;59688;-60
2024/01/24 08:32:57;;;;;;;;;;;;;;;0.15;100.00;98463.13;110321;1242;72214;-60
2024/01/24 08:35:27;;;;;;;;;;;;;;;0.19;100.00;98458.13;110340;1248;70146;-60
2024/01/24 08:37:55;;;;;;;;;;;;;;;0.17;100.00;98465.85;110310;1241;69870;-60
2024/01/24 08:40:25;;;;;;;;;;;;;;;0.15;100.00;98469.66;110365;1242;59739;-60
2024/01/24 08:42:54;;;;;;;;;;;;;;;0.16;100.00;98460.73;110427;1242;59678;-60
2024/01/24 08:45:23;;;;;;;;;;;;;;;0.19;100.00;98452.45;110402;1242;71309;-60
2024/01/24 08:47:52;;;;;;;;;;;;;;;0.20;100.00;98460.15;110466;1246;69805;-60
2024/01/24 08:50:22;;;;;;;;;;;;;;;0.21;100.00;98456.19;110452;1242;69336;-60
2024/01/24 08:52:52;;;;;;;;;;;;;;;0.25;100.00;98452.54;110413;1240;59667;-60
2024/01/24 08:55:21;;;;;;;;;;;;;;;0.28;100.00;98441.35;110375;1241;60075;-61
2024/01/24 08:57:50;;;;;;;;;;;;;;;0.28;100.00;98426.09;110508;1242;71951;-61
2024/01/24 09:00:19;;;;;;;;;;;;;;;0.25;99.80;98423.71;110400;1247;70252;-61
2024/01/24 09:02:48;;;;;;;;;;;;;;;0.22;99.62;98423.09;110376;1242;69876;-61
2024/01/24 09:05:20;;;;;;;;;;;;;;;0.19;99.69;98421.08;110453;1242;59690;-61
2024/01/24 09:07:50;;;;;;;;;;;;;;;0.17;100.00;98423.86;110483;1242;59619;-61
2024/01/24 09:10:19;;;;;;;;;;;;;;;0.24;100.00;98432.83;110439;1241;72319;-61
2024/01/24 09:12:51;;;;;;;;;;;;;;;0.31;100.00;98430.32;110480;1240;69742;-62
2024/01/24 09:15:20;;;;;;;;;;;;;;;0.30;99.67;98438.23;110471;1238;69957;-62
2024/01/24 09:17:50;;;;;;;;;;;;;;;0.34;99.91;98437.64;110420;1241;59691;-61
2024/01/24 09:20:19;;;;;;;;;;;;;;;0.38;99.24;98423.52;110454;1242;59691;-60
2024/01/24 09:22:50;;;;;;;;;;;;;;;0.39;99.15;98417.16;110430;1240;70824;-60
2024/01/24 09:25:19;;;;;;;;;;;;;;;0.42;98.73;98415.23;110499;1244;68053;-60
2024/01/24 09:27:49;;;;;;;;;;;;;;;0.43;98.71;98406.48;110407;1240;69864;-61
2024/01/24 09:30:18;;;;;;;;;;;;;;;0.45;98.75;98398.02;110313;1239;59713;-60
2024/01/24 09:32:47;;;;;;;;;;;;;;;0.46;98.27;98391.48;110431;1248;59724;-62
2024/01/24 09:35:17;;;;;;;;;;;;;;;0.42;98.19;98383.34;110372;1241;71399;-60
2024/01/24 09:37:47;;;;;;;;;;;;;;;0.43;98.35;98383.32;110443;1241;68526;-61
2024/01/24 09:40:16;;;;;;;;;;;;;;;0.43;98.27;98382.12;110438;1238;68263;-61
2024/01/24 09:42:46;;;;;;;;;;;;;;;0.41;98.35;98378.37;110354;1242;59670;-61
2024/01/24 09:45:17;;;;;;;;;;;;;;;0.40;98.51;98380.27;110372;1241;59711;-61
2024/01/24 09:47:47;;;;;;;;;;;;;;;0.39;99.02;98367.26;110373;1242;70501;-61
2024/01/24 09:50:18;;;;;;;;;;;;;;;0.37;98.70;98350.14;110390;1248;69145;-61
2024/01/24 09:52:48;;;;;;;;;;;;;;;0.36;98.94;98342.77;110387;1242;69881;-61
2024/01/24 09:55:21;;;;;;;;;;;;;;;0.35;99.24;98339.21;110378;1242;59731;-60
2024/01/24 09:57:50;;;;;;;;;;;;;;;0.33;99.53;98340.44;110408;1244;59680;-61
2024/01/24 10:00:19;;;;;;;;;;;;;;;0.33;99.71;98334.95;110482;1240;71340;-61
2024/01/24 10:02:48;;;;;;;;;;;;;;;0.35;99.80;98322.73;110355;1241;69832;-61
2024/01/24 10:05:18;;;;;;;;;;;;;;;0.37;100.00;98313.95;110281;1240;68177;-61
2024/01/24 10:07:49;;;;;;;;;;;;;;;0.47;100.00;98309.15;110372;1240;59756;-60
2024/01/24 10:10:20;;;;;;;;;;;;;;;0.56;100.00;98300.41;110391;1238;59734;-60
2024/01/24 10:12:50;;;;;;;;;;;;;;;0.64;99.57;98291.52;110299;1246;71403;-60
2024/01/24 10:15:21;;;;;;;;;;;;;;;0.67;99.30;98282.71;110389;1241;69373;-61
2024/01/24 10:17:50;;;;;;;;;;;;;;;0.69;98.88;98276.32;110394;1240;69307;-62
2024/01/24 10:20:20;;;;;;;;;;;;;;;0.70;98.92;98276.65;110437;1241;59731;-62
2024/01/24 10:22:50;;;;;;;;;;;;;;;0.70;99.06;98277.33;110501;1241;59626;-62
2024/01/24 10:25:19;;;;;;;;;;;;;;;0.71;99.41;98261.35;110441;1243;71631;-62
2024/01/24 10:27:49;;;;;;;;;;;;;;;0.74;99.31;98255.80;110422;1242;68325;-62
2024/01/24 10:30:22;;;;;;;;;;;;;;;0.75;99.43;98254.05;110447;1241;69865;-62
2024/01/24 10:32:52;;;;;;;;;;;;;;;0.76;99.53;98252.48;110418;1242;59729;-62
2024/01/24 10:35:21;;;;;;;;;;;;;;;0.77;99.52;98246.30;110474;1249;59651;-61
2024/01/24 10:37:52;;;;;;;;;;;;;;;0.77;99.57;98239.27;110379;1242;71945;-62
2024/01/24 10:40:22;;;;;;;;;;;;;;;0.74;99.87;98235.20;110388;1242;69827;-62
2024/01/24 10:42:59;;;;;;;;;;;;;;;0.74;99.81;98231.60;110389;1247;69699;-62
2024/01/24 10:45:34;;;;;;;;;;;;;;;0.68;100.00;98229.50;110436;1241;59639;-62
2024/01/24 10:48:03;;;;;;;;;;;;;;;0.66;100.00;98218.57;110437;1242;59666;-62
2024/01/24 10:50:34;;;;;;;;;;;;;;;0.66;100.00;98206.05;110455;1241;71909;-62
2024/01/24 10:53:04;;;;;;;;;;;;;;;0.64;100.00;98195.96;110499;1241;69247;-63
2024/01/24 10:55:34;;;;;;;;;;;;;;;0.63;100.00;98193.39;110482;1241;70243;-61
2024/01/24 10:58:03;;;;;;;;;;;;;;;0.66;100.00;98187.67;110489;1241;59712;-62
2024/01/24 11:00:35;;;;;;;;;;;;;;;0.72;100.00;98168.33;110381;1242;59707;-62
2024/01/24 11:03:06;;;;;;;;;;;;;;;0.73;100.00;98161.11;110518;1238;70735;-62
2024/01/24 11:05:39;;;;;;;;;;;;;;;0.75;100.00;98155.73;110386;1242;68558;-63
2024/01/24 11:08:11;;;;;;;;;;;;;;;0.76;100.00;98141.14;110420;1242;69303;-61
2024/01/24 11:10:42;;;;;;;;;;;;;;;0.77;100.00;98133.57;110469;1249;59740;-61
2024/01/24 11:13:12;;;;;;;;;;;;;;;0.79;100.00;98119.27;110429;1241;59643;-61
2024/01/24 11:15:41;;;;;;;;;;;;;;;0.76;100.00;98115.39;109918;1238;704417;-61
2024/01/24 11:18:20;;;;;;;;;;;;;;;0.79;100.00;98102.64;110408;1249;69772;-61
2024/01/24 11:20:53;;;;;;;;;;;;;;;0.78;100.00;98102.99;110388;1240;69857;-62
2024/01/24 11:23:34;;;;;;;;;;;;;;;0.82;100.00;98098.79;110421;1241;59748;-62
2024/01/24 11:26:03;;;;;;;;;;;;;;;0.88;100.00;98092.65;110481;1242;59692;-62
2024/01/24 11:28:33;;;;;;;;;;;;;;;0.94;100.00;98092.66;110463;1243;70614;-62
2024/01/24 11:31:03;;;;;;;;;;;;;;;0.95;100.00;98087.49;110388;1240;69137;-62
2024/01/24 11:33:33;;;;;;;;;;;;;;;0.92;100.00;98081.57;110440;1238;69107;-62
2024/01/24 11:36:04;;;;;;;;;;;;;;;0.85;100.00;98078.30;110390;1242;59667;-62
2024/01/24 11:38:34;;;;;;;;;;;;;;;0.90;100.00;98074.92;110530;1242;59614;-62
2024/01/24 11:41:03;;;;;;;;;;;;;;;0.94;100.00;98061.95;110407;1248;71227;-62
2024/01/24 11:43:33;;;;;;;;;;;;;;;1.03;100.00;98048.35;110471;1242;69063;-62
2024/01/24 11:46:07;;;;;;;;;;;;;;;1.10;100.00;98053.00;110414;1242;69884;-62
2024/01/24 11:48:39;;;;;;;;;;;;;;;1.15;100.00;98058.35;110513;1242;59745;-62
2024/01/24 11:51:10;;;;;;;;;;;;;;;1.17;100.00;98061.58;110443;1242;59682;-62
2024/01/24 11:53:39;;;;;;;;;;;;;;;1.13;100.00;98066.30;110562;1242;71492;-62
2024/01/24 11:56:17;;;;;;;;;;;;;;;1.10;100.00;98070.34;110330;1242;70223;-62
2024/01/24 11:58:47;;;;;;;;;;;;;;;1.07;100.00;98073.66;110493;1241;69848;-61
2024/01/24 12:01:16;;;;;;;;;;;;;;;1.04;100.00;98070.14;110408;1242;59692;-62
2024/01/24 12:03:45;;;;;;;;;;;;;;;1.04;100.00;98061.05;110587;1244;59699;-62
2024/01/24 12:06:15;;;;;;;;;;;;;;;0.99;100.00;98058.56;110339;1243;70708;-62
2024/01/24 12:08:47;;;;;;;;;;;;;;;0.96;100.00;98064.64;110320;1242;69835;-62
2024/01/24 12:11:19;;;;;;;;;;;;;;;0.90;100.00;98054.48;110350;1241;69389;-62
2024/01/24 12:13:49;;;;;;;;;;;;;;;0.86;100.00;98043.45;110368;1241;59704;-62
2024/01/24 12:16:20;;;;;;;;;;;;;;;0.84;100.00;98034.91;110319;1243;59691;-61
2024/01/24 12:18:49;;;;;;;;;;;;;;;0.82;100.00;98024.65;110402;1241;71418;-62
2024/01/24 12:21:20;;;;;;;;;;;;;;;0.80;100.00;98020.08;110457;1241;69833;-62
2024/01/24 12:23:52;;;;;;;;;;;;;;;0.79;100.00;98020.96;110402;1243;68489;-62
2024/01/24 12:26:21;;;;;;;;;;;;;;;0.79;100.00;98019.92;110514;1242;59735;-62
2024/01/24 12:28:51;;;;;;;;;;;;;;;0.78;100.00;98018.06;110311;1241;59700;-62
2024/01/24 12:31:20;;;;;;;;;;;;;;;0.80;100.00;98020.76;110342;1242;71989;-62
2024/01/24 12:33:50;;;;;;;;;;;;;;;0.83;100.00;98026.17;110470;1242;69839;-61
2024/01/24 12:36:22;;;;;;;;;;;;;;;0.83;100.00;98030.98;110409;1241;69849;-62
2024/01/24 12:38:56;;;;;;;;;;;;;;;0.82;100.00;98028.60;110381;1242;59800;-62
2024/01/24 12:41:26;;;;;;;;;;;;;;;0.81;100.00;98027.77;110511;1243;59738;-62
2024/01/24 12:43:56;;;;;;;;;;;;;;;0.81;100.00;98024.52;110476;1242;71135;-62
2024/01/24 12:46:25;;;;;;;;;;;;;;;0.76;100.00;98025.51;110414;1238;68731;-62